Time;durP1;ratioP1;P1;durP2;ratioP2;P2;SDS_P1;SDS_P2;PMS_P1;PMS_P2;Temp;Humidity;BMP_temperature;BMP_pressure;BME280_temperature;BME280_humidity;BME280_pressure;Samples;Min_cycle;Max_cycle;Signal;HPM_P1;HPM_P2
2022/06/19 00:00:06;;;;;;;3.17;2.97;;;;;;;19.55;71.31;101365.13;5037947;28;102388;-51
2022/06/19 00:02:33;;;;;;;3.40;2.95;;;;;;;19.55;71.17;101367.88;5037323;28;101984;-51
2022/06/19 00:05:01;;;;;;;3.22;2.97;;;;;;;19.55;70.81;101371.44;5036419;28;103192;-51
2022/06/19 00:07:29;;;;;;;3.10;2.90;;;;;;;19.56;70.94;101377.78;5028620;28;103905;-51
2022/06/19 00:09:56;;;;;;;2.90;2.70;;;;;;;19.56;70.99;101375.81;5029140;28;102293;-51
2022/06/19 00:12:25;;;;;;;2.70;2.50;;;;;;;19.56;70.82;101377.78;5037639;28;102083;-51
2022/06/19 00:14:53;;;;;;;3.15;2.95;;;;;;;19.58;70.92;101386.53;5039672;28;102575;-51
2022/06/19 00:17:20;;;;;;;3.40;3.10;;;;;;;19.56;70.86;101380.53;5037450;28;104074;-51
2022/06/19 00:19:47;;;;;;;3.17;2.97;;;;;;;19.56;70.95;101380.53;5038317;27;102178;-51
2022/06/19 00:22:15;;;;;;;3.25;3.05;;;;;;;19.55;70.95;101371.44;5037098;28;102261;-50
2022/06/19 00:24:42;;;;;;;2.80;2.60;;;;;;;19.55;71.32;101376.97;5036766;28;102497;-52
2022/06/19 00:27:09;;;;;;;2.55;2.35;;;;;;;19.53;71.23;101372.88;5036570;28;103899;-50
2022/06/19 00:29:36;;;;;;;2.55;2.40;;;;;;;19.54;71.27;101374.50;5036389;27;102187;-51
2022/06/19 00:32:07;;;;;;;2.90;2.70;;;;;;;19.54;70.77;101380.84;5036494;28;102411;-50
2022/06/19 00:34:34;;;;;;;3.15;2.95;;;;;;;19.53;71.32;101372.88;5036632;28;102225;-50
2022/06/19 00:37:02;;;;;;;2.67;2.50;;;;;;;19.53;70.91;101375.63;5036967;28;103932;-51
2022/06/19 00:39:39;;;;;;;3.10;2.90;;;;;;;19.53;71.23;101372.88;5038562;28;102639;-51
2022/06/19 00:42:08;;;;;;;3.20;3.00;;;;;;;19.53;71.43;101381.16;5035869;28;102135;-50
2022/06/19 00:44:34;;;;;;;3.55;3.25;;;;;;;19.52;71.28;101376.78;5035802;28;102078;-51
2022/06/19 00:47:08;;;;;;;3.13;2.92;;;;;;;19.52;70.81;101376.78;5037320;28;103902;-50
2022/06/19 00:49:39;;;;;;;2.72;2.47;;;;;;;19.52;71.11;101371.25;5037356;28;102318;-51
2022/06/19 00:52:12;;;;;;;3.05;2.85;;;;;;;19.51;71.02;101370.44;5021016;28;102239;-50
2022/06/19 00:54:45;;;;;;;2.70;2.50;;;;;;;19.51;71.25;101377.88;5035716;28;102554;-51
2022/06/19 00:57:13;;;;;;;2.85;2.65;;;;;;;19.49;71.27;101374.66;5036800;28;103900;-51
2022/06/19 00:59:43;;;;;;;2.92;2.72;;;;;;;19.49;71.37;101382.94;5037357;28;102005;-51
2022/06/19 01:02:12;;;;;;;3.83;2.85;;;;;;;19.47;71.17;101377.72;5035036;27;102102;-51
2022/06/19 01:04:44;;;;;;;2.92;2.72;;;;;;;19.49;71.37;101380.16;5038056;28;102091;-51
2022/06/19 01:07:10;;;;;;;3.30;3.00;;;;;;;19.49;71.22;101383.75;5036756;28;104005;-51
2022/06/19 01:09:37;;;;;;;2.97;2.78;;;;;;;19.47;71.19;101380.47;5037852;28;102186;-51
2022/06/19 01:12:08;;;;;;;3.17;2.97;;;;;;;19.49;71.34;101380.16;5034039;28;102281;-51
2022/06/19 01:14:38;;;;;;;2.67;2.47;;;;;;;19.49;71.39;101391.22;5036596;28;102202;-51
2022/06/19 01:17:04;;;;;;;3.17;2.97;;;;;;;19.48;70.80;101387.63;5036214;28;103921;-51
2022/06/19 01:19:36;;;;;;;3.03;2.83;;;;;;;19.49;71.02;101388.44;5037824;27;102423;-51
2022/06/19 01:22:14;;;;;;;6.95;2.70;;;;;;;19.50;70.91;101398.34;5032579;28;102219;-51
2022/06/19 01:24:55;;;;;;;3.25;3.05;;;;;;;19.50;71.14;101395.59;5018079;28;102368;-50
2022/06/19 01:30:12;;;;;;;3.13;2.88;;;;;;;19.48;71.21;101401.44;5031597;28;102718;-51
2022/06/19 01:32:46;;;;;;;3.05;2.78;;;;;;;19.49;71.28;101402.25;5035801;28;102777;-51
2022/06/19 01:35:15;;;;;;;2.90;2.70;;;;;;;19.48;71.38;101403.38;5036770;28;102211;-50
2022/06/19 01:37:43;;;;;;;2.97;2.78;;;;;;;19.47;71.03;101396.22;5036402;28;103944;-51
2022/06/19 01:40:15;;;;;;;2.75;2.55;;;;;;;19.46;71.11;101400.94;5037201;28;102247;-50
2022/06/19 01:42:42;;;;;;;2.83;2.63;;;;;;;19.47;71.39;101412.78;5033622;28;102391;-51
2022/06/19 01:45:11;;;;;;;3.20;2.90;;;;;;;19.45;71.37;101411.16;5027792;28;102622;-51
2022/06/19 01:47:40;;;;;;;2.85;2.65;;;;;;;19.45;71.43;101399.31;5034875;28;103901;-50
2022/06/19 01:50:09;;;;;;;3.28;3.08;;;;;;;19.44;71.32;101398.50;5034054;28;102815;-51
2022/06/19 01:52:36;;;;;;;3.33;3.13;;;;;;;19.44;71.06;101401.25;5035266;28;102498;-50
2022/06/19 01:55:08;;;;;;;3.28;3.08;;;;;;;19.45;71.10;101400.13;5037245;28;102198;-50
2022/06/19 01:57:40;;;;;;;3.35;3.05;;;;;;;19.45;71.29;101402.06;5035550;28;103919;-51
2022/06/19 02:00:10;;;;;;;3.40;3.10;;;;;;;19.45;71.08;101407.59;5035204;28;102013;-51
2022/06/19 02:02:37;;;;;;;3.53;3.20;;;;;;;19.43;71.21;101407.06;5033451;28;102447;-50
2022/06/19 02:05:04;;;;;;;2.83;2.63;;;;;;;19.44;70.93;101414.25;5032408;28;102549;-51
2022/06/19 02:07:32;;;;;;;3.38;3.08;;;;;;;19.43;71.20;101418.13;5027286;28;103500;-50
2022/06/19 02:10:00;;;;;;;2.97;2.67;;;;;;;19.43;71.24;101412.59;5025789;28;102399;-50
2022/06/19 02:12:27;;;;;;;3.28;3.00;;;;;;;19.43;70.87;101413.41;5026269;27;102132;-50
2022/06/19 02:15:00;;;;;;;3.13;2.85;;;;;;;19.42;71.22;101409.03;5037171;28;102265;-50
2022/06/19 02:17:33;;;;;;;2.97;2.70;;;;;;;19.45;71.04;101416.69;5035176;28;104083;-50
2022/06/19 02:20:01;;;;;;;3.28;3.00;;;;;;;19.46;70.72;101420.25;5034559;28;102165;-50
2022/06/19 02:22:28;;;;;;;3.13;2.93;;;;;;;19.45;70.97;101415.88;5032927;28;102319;-50
2022/06/19 02:24:55;;;;;;;3.33;3.13;;;;;;;19.45;70.86;101419.44;5035714;28;102193;-50
2022/06/19 02:27:23;;;;;;;3.42;2.67;;;;;;;19.44;71.24;101423.34;5033219;27;107787;-51
2022/06/19 02:29:51;;;;;;;3.17;2.88;;;;;;;19.44;71.07;101420.56;5036367;28;102282;-51
2022/06/19 02:32:23;;;;;;;4.18;3.10;;;;;;;19.44;71.11;101419.75;5033667;28;102122;-51
2022/06/19 02:34:52;;;;;;;3.40;3.10;;;;;;;19.44;71.30;101414.25;5035230;28;102736;-50
2022/06/19 02:37:23;;;;;;;3.22;2.90;;;;;;;19.42;71.12;101417.31;5035944;28;104169;-51
2022/06/19 02:39:56;;;;;;;3.72;3.30;;;;;;;19.43;71.12;101415.34;5031816;28;102039;-50
2022/06/19 02:42:34;;;;;;;3.40;3.10;;;;;;;19.44;71.01;101414.25;5034247;28;102996;-51
2022/06/19 02:45:05;;;;;;;3.17;2.97;;;;;;;19.44;71.02;101423.34;5034446;28;102398;-51
2022/06/19 02:47:35;;;;;;;3.72;3.42;;;;;;;19.45;70.65;101422.19;5035939;28;103469;-51
2022/06/19 02:50:04;;;;;;;2.92;2.72;;;;;;;19.47;70.83;101418.31;5035945;28;101994;-50
2022/06/19 02:52:31;;;;;;;3.20;3.00;;;;;;;19.47;70.85;101419.13;5034538;28;102201;-50
2022/06/19 02:54:58;;;;;;;3.20;3.00;;;;;;;19.47;70.52;101421.06;5032924;28;102775;-50
2022/06/19 02:57:26;;;;;;;3.00;2.80;;;;;;;19.48;70.80;101419.94;5033843;28;103909;-51
2022/06/19 02:59:52;;;;;;;2.85;2.65;;;;;;;19.47;70.99;101429.34;5035153;28;101953;-51
2022/06/19 03:02:20;;;;;;;3.17;2.97;;;;;;;19.48;70.77;101436.53;5035201;28;102144;-51
2022/06/19 03:04:53;;;;;;;2.95;2.75;;;;;;;19.48;70.44;101433.75;5032351;28;102691;-52
2022/06/19 03:07:19;;;;;;;3.40;3.10;;;;;;;19.48;70.73;101437.31;5035125;28;103832;-50
2022/06/19 03:09:46;;;;;;;3.08;2.88;;;;;;;19.49;70.70;101443.66;5036111;28;102039;-50
2022/06/19 03:12:12;;;;;;;3.60;3.30;;;;;;;19.49;70.52;101438.13;5034323;28;102411;-50
2022/06/19 03:14:39;;;;;;;3.22;3.00;;;;;;;19.50;70.26;101439.75;5032875;28;102506;-50
2022/06/19 03:17:05;;;;;;;2.83;2.63;;;;;;;19.50;70.13;101439.75;5033499;27;103967;-51
2022/06/19 03:19:33;;;;;;;3.10;2.90;;;;;;;19.51;69.99;101446.91;5033139;28;101958;-51
2022/06/19 03:22:02;;;;;;;3.08;2.88;;;;;;;19.51;70.02;101435.88;5035075;28;102020;-51
2022/06/19 03:24:28;;;;;;;2.97;2.78;;;;;;;19.52;69.91;101437.53;5034136;27;102527;-51
2022/06/19 03:26:55;;;;;;;3.15;2.95;;;;;;;19.52;70.18;101441.09;5038054;27;103917;-51
2022/06/19 03:29:22;;;;;;;3.85;3.55;;;;;;;19.53;69.97;101444.66;5037134;28;102129;-51
2022/06/19 03:31:49;;;;;;;2.90;2.70;;;;;;;19.53;70.08;101442.72;5037967;28;102133;-51
2022/06/19 03:34:15;;;;;;;3.25;3.00;;;;;;;19.54;70.37;101443.53;5035243;28;102238;-51
2022/06/19 03:36:43;;;;;;;3.05;2.85;;;;;;;19.53;70.15;101447.41;5026187;28;103886;-51
2022/06/19 03:39:11;;;;;;;3.28;3.05;;;;;;;19.54;70.55;101449.03;5019024;28;102252;-51
2022/06/19 03:41:39;;;;;;;3.58;2.80;;;;;;;19.54;70.71;101451.81;5019353;28;102378;-51
2022/06/19 03:44:06;;;;;;;4.32;3.00;;;;;;;19.55;70.22;101453.47;5022611;28;102336;-51
2022/06/19 03:46:34;;;;;;;3.15;2.85;;;;;;;19.55;70.63;101461.75;5037935;28;103929;-51
2022/06/19 03:49:02;;;;;;;3.13;2.90;;;;;;;19.55;70.75;101459.78;5039146;28;102381;-51
2022/06/19 03:51:30;;;;;;;2.95;2.75;;;;;;;19.54;70.67;101457.31;5038148;28;102689;-51
2022/06/19 03:53:57;;;;;;;3.00;2.80;;;;;;;19.54;70.88;101463.66;5037570;28;102164;-51
2022/06/19 03:56:27;;;;;;;2.80;2.60;;;;;;;19.56;70.96;101460.59;5038236;28;103839;-51
2022/06/19 03:58:54;;;;;;;3.10;2.90;;;;;;;19.55;70.97;101472.78;5038101;28;102247;-50
2022/06/19 04:01:24;;;;;;;3.83;3.17;;;;;;;19.55;71.21;101472.78;5038146;28;102424;-51
2022/06/19 04:03:54;;;;;;;3.00;2.80;;;;;;;19.55;70.98;101475.53;5037939;28;101985;-51
2022/06/19 04:06:22;;;;;;;3.28;3.08;;;;;;;19.55;71.21;101478.31;5035093;28;104306;-50
2022/06/19 04:08:52;;;;;;;3.03;2.83;;;;;;;19.56;71.32;101479.94;5028002;28;102287;-51
2022/06/19 04:11:21;;;;;;;3.30;3.00;;;;;;;19.57;71.05;101481.56;5032160;28;102340;-51
2022/06/19 04:13:49;;;;;;;3.13;2.92;;;;;;;19.58;70.99;101480.41;5020683;28;102351;-51
2022/06/19 04:16:19;;;;;;;3.40;3.20;;;;;;;19.57;70.93;101479.59;5036328;28;103936;-51
2022/06/19 04:18:46;;;;;;;3.13;2.92;;;;;;;19.59;71.40;101476.53;5036814;28;102312;-51
2022/06/19 04:21:15;;;;;;;3.73;3.20;;;;;;;19.58;71.25;101480.41;5036736;28;103537;-51
2022/06/19 04:23:42;;;;;;;2.93;2.73;;;;;;;19.58;70.81;101481.25;5035726;28;102299;-51
2022/06/19 04:26:09;;;;;;;3.35;3.05;;;;;;;19.59;71.17;101482.06;5026377;28;103843;-50
2022/06/19 04:28:36;;;;;;;3.20;3.00;;;;;;;19.59;71.04;101484.81;5036282;28;104818;-50
2022/06/19 04:31:05;;;;;;;3.40;3.20;;;;;;;19.60;71.21;101478.16;5033924;28;102173;-50
2022/06/19 04:33:35;;;;;;;;;;;;;;;19.61;70.91;101482.56;5037733;28;102320;-50
2022/06/19 04:36:03;;;;;;;3.20;3.00;;;;;;;19.61;71.54;101485.31;5034845;28;103922;-51
2022/06/19 04:38:31;;;;;;;3.28;3.00;;;;;;;19.61;71.06;101479.78;5038854;28;102277;-50
2022/06/19 04:40:57;;;;;;;3.25;3.05;;;;;;;19.62;71.01;101492.50;5035668;28;102244;-51
2022/06/19 04:43:24;;;;;;;2.70;2.50;;;;;;;19.61;71.18;101480.59;5038006;28;102843;-51
2022/06/19 04:45:51;;;;;;;3.40;3.20;;;;;;;19.62;71.13;101492.50;5034431;28;103861;-51
2022/06/19 04:48:19;;;;;;;3.13;2.92;;;;;;;19.62;71.29;101498.00;5037878;28;102393;-51
2022/06/19 04:50:45;;;;;;;3.57;3.27;;;;;;;19.62;70.98;101486.97;5037834;28;102278;-51
2022/06/19 04:53:12;;;;;;;3.42;3.17;;;;;;;19.64;71.05;101495.75;5036112;28;102261;-50
2022/06/19 04:55:39;;;;;;;3.50;3.20;;;;;;;19.64;71.05;101495.75;5033971;28;103882;-51
2022/06/19 04:58:08;;;;;;;3.05;2.85;;;;;;;19.66;71.26;101493.53;5034779;28;102479;-50
2022/06/19 05:00:34;;;;;;;3.60;3.30;;;;;;;19.66;71.12;101493.53;5036091;28;102224;-50
2022/06/19 05:03:01;;;;;;;3.35;3.15;;;;;;;19.67;70.90;101495.16;5038133;28;102511;-51
2022/06/19 05:05:29;;;;;;;3.65;3.35;;;;;;;19.70;71.04;101494.53;5034387;28;103935;-50
2022/06/19 05:07:55;;;;;;;3.60;3.30;;;;;;;19.68;71.09;101494.00;5037079;28;102103;-51
2022/06/19 05:10:22;;;;;;;3.40;3.20;;;;;;;19.68;70.96;101489.28;5036207;28;102466;-51
2022/06/19 05:12:54;;;;;;;4.47;3.50;;;;;;;19.70;70.87;101494.53;5038365;28;102173;-50
2022/06/19 05:15:41;;;;;;;3.55;3.35;;;;;;;19.73;70.84;101499.41;5034400;28;104948;-51
2022/06/19 05:18:08;;;;;;;3.30;3.10;;;;;;;19.74;70.86;101495.53;5036668;28;102277;-51
2022/06/19 05:20:37;;;;;;;4.00;3.70;;;;;;;19.75;71.07;101499.91;5034585;28;102628;-50
2022/06/19 05:23:04;;;;;;;;;;;;;;;19.76;70.91;101504.28;5030339;28;102332;-50
2022/06/19 05:25:31;;;;;;;4.43;4.13;;;;;;;19.78;70.87;101495.69;5035535;28;103942;-51
2022/06/19 05:27:58;;;;;;;4.03;3.72;;;;;;;19.79;70.65;101500.91;5035629;28;102701;-51
2022/06/19 05:30:25;;;;;;;3.72;3.38;;;;;;;19.82;70.75;101497.50;5020187;28;102404;-51
2022/06/19 05:32:52;;;;;;;4.20;3.90;;;;;;;19.83;70.63;101501.09;5030467;28;102424;-51
2022/06/19 05:35:19;;;;;;;4.38;4.00;;;;;;;19.84;70.59;101495.28;5025775;28;104036;-51
2022/06/19 05:37:47;;;;;;;4.90;4.50;;;;;;;19.86;70.51;101497.69;5037093;28;102154;-51
2022/06/19 05:40:13;;;;;;;7.70;4.77;;;;;;;19.86;70.37;101492.19;5035692;28;102147;-51
2022/06/19 05:42:43;;;;;;;7.45;4.13;;;;;;;19.88;70.27;101492.69;5036407;28;102727;-51
2022/06/19 05:45:10;;;;;;;4.88;4.18;;;;;;;19.89;70.40;101488.78;5032872;28;103706;-50
2022/06/19 05:47:37;;;;;;;4.45;4.15;;;;;;;19.90;70.12;101488.47;5035181;27;102136;-51
2022/06/19 05:50:04;;;;;;;4.75;4.45;;;;;;;19.92;70.12;101485.41;5036506;28;102211;-51
2022/06/19 05:52:31;;;;;;;5.13;4.70;;;;;;;19.93;70.19;101484.25;5037567;28;102307;-51
2022/06/19 05:54:59;;;;;;;4.15;3.85;;;;;;;19.95;70.34;101486.72;5031994;28;103934;-51
2022/06/19 05:57:25;;;;;;;4.50;4.10;;;;;;;19.96;70.08;101474.53;5035980;28;102167;-51
2022/06/19 05:59:54;;;;;;;5.07;4.68;;;;;;;19.97;70.11;101479.72;5033925;28;102507;-51
2022/06/19 06:02:23;;;;;;;4.88;4.47;;;;;;;19.97;70.17;101474.19;5036680;28;102321;-51
2022/06/19 06:04:50;;;;;;;4.53;4.22;;;;;;;20.00;69.94;101478.28;5033973;28;108044;-55
2022/06/19 06:07:18;;;;;;;5.00;4.63;;;;;;;20.01;69.89;101482.69;5029887;28;102278;-51
2022/06/19 06:09:45;;;;;;;5.03;4.30;;;;;;;20.02;69.84;101476.03;5024469;28;102527;-51
2022/06/19 06:12:16;;;;;;;5.20;4.80;;;;;;;20.04;70.01;101487.56;5030818;28;103392;-51
2022/06/19 06:14:43;;;;;;;4.65;4.25;;;;;;;20.06;69.95;101479.78;5032873;28;103983;-51
2022/06/19 06:17:09;;;;;;;4.90;4.53;;;;;;;20.07;69.82;101485.00;5035620;28;102558;-51
2022/06/19 06:19:37;;;;;;;4.32;4.00;;;;;;;20.09;69.69;101479.16;5034239;28;102209;-51
2022/06/19 06:22:04;;;;;;;5.07;4.72;;;;;;;20.09;69.58;101479.16;5037229;28;102329;-50
2022/06/19 06:24:32;;;;;;;4.90;4.50;;;;;;;20.07;69.53;101482.22;5032699;28;103944;-51
2022/06/19 06:27:02;;;;;;;5.03;4.63;;;;;;;20.09;69.64;101485.50;5035717;28;102153;-51
2022/06/19 06:29:31;;;;;;;5.15;4.47;;;;;;;20.11;69.55;101479.66;5035489;28;102198;-51
2022/06/19 06:31:58;;;;;;;5.27;4.80;;;;;;;20.12;69.27;101484.88;5036213;28;102223;-51
2022/06/19 06:34:24;;;;;;;4.53;4.22;;;;;;;20.13;69.31;101488.44;5034006;28;104075;-51
2022/06/19 06:36:51;;;;;;;4.47;4.07;;;;;;;20.13;69.44;101485.69;5035485;28;102328;-51
2022/06/19 06:39:17;;;;;;;4.60;4.25;;;;;;;20.15;69.32;101486.16;5034531;28;102141;-51
2022/06/19 06:41:45;;;;;;;4.55;4.18;;;;;;;20.15;69.18;101484.22;5022902;28;102406;-50
2022/06/19 06:44:13;;;;;;;5.03;4.68;;;;;;;20.15;69.22;101483.41;5028650;28;104027;-51
2022/06/19 06:46:41;;;;;;;4.55;4.20;;;;;;;20.16;69.40;101485.06;5033640;28;102668;-51
2022/06/19 06:49:08;;;;;;;4.57;4.17;;;;;;;20.15;69.41;101484.22;5031365;28;102439;-51
2022/06/19 06:51:35;;;;;;;5.47;4.93;;;;;;;20.16;69.28;101485.88;5027204;28;102401;-51
2022/06/19 06:54:02;;;;;;;4.57;4.18;;;;;;;20.16;69.42;101474.00;5016045;28;104207;-51
2022/06/19 06:56:31;;;;;;;4.43;3.95;;;;;;;20.17;69.21;101476.44;5034142;28;102139;-51
2022/06/19 06:58:57;;;;;;;4.50;4.20;;;;;;;20.22;68.78;101477.41;5030145;28;102211;-51
2022/06/19 07:01:25;;;;;;;4.63;4.13;;;;;;;20.22;68.64;101482.94;5033495;28;102714;-50
2022/06/19 07:03:55;;;;;;;4.53;4.22;;;;;;;20.24;69.09;101480.69;5033311;28;103895;-51
2022/06/19 07:06:23;;;;;;;6.03;4.93;;;;;;;20.22;69.06;101474.66;5024291;27;102233;-51
2022/06/19 07:08:49;;;;;;;4.57;4.20;;;;;;;20.21;69.06;101471.09;5014938;28;102445;-51
2022/06/19 07:11:20;;;;;;;4.53;4.20;;;;;;;20.23;69.20;101479.88;5031478;28;102113;-51
2022/06/19 07:13:47;;;;;;;5.40;4.90;;;;;;;20.23;68.89;101479.03;5014861;28;103852;-51
2022/06/19 07:16:13;;;;;;;5.32;4.57;;;;;;;20.23;68.81;101471.59;5029179;28;102443;-50
2022/06/19 07:18:40;;;;;;;4.80;4.45;;;;;;;20.23;69.03;101477.13;5023638;28;102860;-51
2022/06/19 07:21:11;;;;;;;4.80;4.50;;;;;;;20.23;68.88;101471.59;5034038;28;102301;-51
2022/06/19 07:23:38;;;;;;;4.70;4.30;;;;;;;20.24;68.70;101475.97;5034985;28;103943;-51
2022/06/19 07:26:08;;;;;;;4.63;4.22;;;;;;;20.26;69.01;101467.34;5034911;28;102016;-51
2022/06/19 07:28:35;;;;;;;4.78;4.38;;;;;;;20.26;68.72;101473.69;5035006;28;102377;-51
2022/06/19 07:31:01;;;;;;;4.68;4.28;;;;;;;20.27;69.19;101467.06;5038298;28;102083;-51
2022/06/19 07:33:28;;;;;;;4.97;4.57;;;;;;;20.28;68.77;101473.41;5025920;28;103893;-51
2022/06/19 07:35:55;;;;;;;4.65;4.35;;;;;;;20.31;68.70;101473.56;5031347;28;102051;-51
2022/06/19 07:38:23;;;;;;;4.90;4.55;;;;;;;20.30;68.91;101474.72;5036242;28;102477;-51
2022/06/19 07:40:49;;;;;;;6.43;5.03;;;;;;;20.27;68.75;101475.34;5036168;28;103607;-50
2022/06/19 07:43:16;;;;;;;4.82;4.47;;;;;;;20.27;68.62;101461.53;5036419;28;103915;-51
2022/06/19 07:45:43;;;;;;;4.68;4.38;;;;;;;20.27;68.71;101469.81;5037228;28;102523;-51
2022/06/19 07:50:55;;;;;;;5.03;4.63;;;;;;;20.28;68.65;101465.09;5037069;28;102038;-51
2022/06/19 07:53:24;;;;;;;4.90;4.55;;;;;;;20.27;68.74;101464.28;5035740;28;103853;-50
2022/06/19 07:55:50;;;;;;;4.10;3.90;;;;;;;20.26;68.86;101467.34;5033451;28;102654;-51
2022/06/19 07:58:17;;;;;;;4.63;4.22;;;;;;;20.28;68.74;101467.88;5033219;28;103672;-51
2022/06/19 08:00:44;;;;;;;4.47;4.18;;;;;;;20.31;68.54;101476.34;5032126;28;102531;-51
2022/06/19 08:03:15;;;;;;;4.75;4.35;;;;;;;20.33;68.50;101471.28;5029857;28;103922;-51
2022/06/19 08:05:43;;;;;;;6.38;4.47;;;;;;;20.32;68.26;101466.91;5028818;28;102241;-51
2022/06/19 08:08:17;;;;;;;5.03;4.63;;;;;;;20.29;68.67;101467.53;5030519;28;102027;-51
2022/06/19 08:10:47;;;;;;;4.65;4.35;;;;;;;20.30;68.61;101469.19;5026776;27;102524;-50
2022/06/19 08:13:19;;;;;;;5.88;4.30;;;;;;;20.30;68.54;101463.66;5021509;28;104008;-50
2022/06/19 08:15:47;;;;;;;4.55;4.25;;;;;;;20.31;68.50;101459.75;5033873;28;101872;-51
2022/06/19 08:18:13;;;;;;;4.78;4.40;;;;;;;20.32;68.63;101453.09;5038759;28;101917;-51
2022/06/19 08:20:40;;;;;;;4.88;4.53;;;;;;;20.31;68.26;101459.75;5037723;27;102169;-51
2022/06/19 08:23:06;;;;;;;4.45;4.05;;;;;;;20.35;68.44;101462.69;5039707;28;103995;-51
2022/06/19 08:25:34;;;;;;;5.07;4.70;;;;;;;20.30;68.74;101449.84;5033557;28;102621;-51
2022/06/19 08:28:02;;;;;;;4.90;4.50;;;;;;;20.32;68.43;101455.03;5033398;28;103276;-51
2022/06/19 08:30:31;;;;;;;4.77;4.23;;;;;;;20.30;68.46;101446.22;5035649;28;102214;-50
2022/06/19 08:32:59;;;;;;;4.78;4.32;;;;;;;20.31;68.54;101454.22;5036415;28;103895;-51
2022/06/19 08:35:29;;;;;;;4.32;3.97;;;;;;;20.32;68.29;101450.31;5036445;28;102280;-51
2022/06/19 08:38:00;;;;;;;4.20;3.90;;;;;;;20.34;68.52;101450.81;5033633;28;102055;-51
2022/06/19 08:40:40;;;;;;;3.90;3.70;;;;;;;20.36;68.39;101445.78;5030009;28;102823;-51
2022/06/19 08:43:19;;;;;;;4.40;4.10;;;;;;;20.36;68.47;101440.25;5019655;28;104262;-51
2022/06/19 08:45:58;;;;;;;4.00;3.70;;;;;;;20.34;68.46;101434.25;5029254;28;102324;-51
2022/06/19 08:49:03;;;;;;;3.70;3.47;;;;;;;20.37;67.99;101439.09;5026913;28;102212;-51
2022/06/19 08:51:38;;;;;;;4.30;4.00;;;;;;;20.38;67.93;101421.41;5022465;28;102163;-50
2022/06/19 08:54:23;;;;;;;4.35;3.95;;;;;;;20.41;67.83;101430.97;5033622;28;108168;-51
2022/06/19 08:57:01;;;;;;;4.10;3.80;;;;;;;20.43;68.08;101434.25;5025555;28;102314;-51
2022/06/19 08:59:41;;;;;;;4.18;3.88;;;;;;;20.39;67.66;101423.03;5029698;28;102169;-50
2022/06/19 09:02:20;;;;;;;4.55;4.18;;;;;;;20.42;67.80;101429.06;5027213;28;102398;-51
2022/06/19 09:07:56;;;;;;;4.27;3.97;;;;;;;20.40;67.80;101424.66;5022720;28;103202;-51
2022/06/19 09:10:35;;;;;;;4.03;3.72;;;;;;;20.38;67.89;101426.94;5020533;27;102043;-51
2022/06/19 09:13:29;;;;;;;3.85;3.55;;;;;;;20.36;68.19;101418.13;5035742;28;103480;-51
2022/06/19 09:16:01;;;;;;;4.38;4.07;;;;;;;20.35;67.82;101419.28;5025922;28;107981;-51
2022/06/19 09:18:39;;;;;;;4.13;3.80;;;;;;;20.34;67.87;101417.66;5026247;28;101999;-51
2022/06/19 09:21:10;;;;;;;3.88;3.58;;;;;;;20.39;67.53;101417.50;5035472;28;102129;-51
2022/06/19 09:23:58;;;;;;;3.85;3.55;;;;;;;20.37;68.32;101405.94;5020477;27;103704;-51
2022/06/19 09:26:31;;;;;;;3.53;3.28;;;;;;;20.37;68.17;101411.47;5023350;28;103894;-51
2022/06/19 09:29:06;;;;;;;4.45;3.70;;;;;;;20.39;68.09;101411.16;5026385;28;102332;-51
2022/06/19 09:31:42;;;;;;;3.60;3.40;;;;;;;20.36;68.12;101412.59;5025912;28;102360;-51
2022/06/19 09:34:16;;;;;;;4.45;4.15;;;;;;;20.33;68.07;101406.91;5023364;28;102095;-51
2022/06/19 09:36:48;;;;;;;4.30;4.00;;;;;;;20.35;67.59;101407.41;5029298;28;103879;-51
2022/06/19 09:39:23;;;;;;;3.63;3.35;;;;;;;20.36;67.91;101414.56;5035265;28;102135;-50
2022/06/19 09:41:56;;;;;;;3.60;3.40;;;;;;;20.34;68.24;101411.28;5024208;28;102128;-51
2022/06/19 09:44:29;;;;;;;4.97;4.25;;;;;;;20.32;67.95;101406.09;5030519;28;102453;-51
2022/06/19 09:47:05;;;;;;;4.70;4.30;;;;;;;20.30;67.94;101404.78;5028670;28;104497;-51
2022/06/19 09:49:38;;;;;;;4.18;3.80;;;;;;;20.26;68.00;101396.31;5032463;28;102755;-51
2022/06/19 09:52:10;;;;;;;3.72;3.53;;;;;;;20.28;68.14;101402.34;5029812;28;102300;-51
2022/06/19 09:54:41;;;;;;;4.40;4.10;;;;;;;20.29;68.24;101401.19;5037863;28;102073;-51
2022/06/19 09:57:13;;;;;;;4.97;4.57;;;;;;;20.26;68.36;101407.38;5036290;28;104043;-51
2022/06/19 09:59:49;;;;;;;4.85;4.45;;;;;;;20.25;67.97;101405.75;5035746;28;102521;-50
2022/06/19 10:02:30;;;;;;;4.28;3.90;;;;;;;20.24;68.10;101393.06;5027676;28;102139;-51
2022/06/19 10:05:02;;;;;;;4.40;4.10;;;;;;;20.22;67.96;101384.25;5017549;28;102646;-51
2022/06/19 10:07:36;;;;;;;4.07;3.83;;;;;;;20.24;68.16;101393.06;5015839;28;104101;-51
2022/06/19 10:10:16;;;;;;;3.90;3.60;;;;;;;20.28;68.25;101393.25;5024741;28;102355;-51
2022/06/19 10:12:51;;;;;;;4.25;3.95;;;;;;;20.22;67.63;101392.56;5003133;28;102179;-51
2022/06/19 10:15:23;;;;;;;3.65;3.45;;;;;;;20.23;67.98;101385.91;5029531;28;102921;-51
2022/06/19 10:17:57;;;;;;;4.10;3.80;;;;;;;20.21;67.67;101377.13;5031005;28;103918;-51
2022/06/19 10:20:32;;;;;;;4.28;3.97;;;;;;;20.21;68.02;101387.38;5033613;28;102192;-51
2022/06/19 10:23:09;;;;;;;4.50;4.20;;;;;;;20.19;67.92;101379.38;5034413;28;102300;-51
2022/06/19 10:25:54;;;;;;;4.50;4.20;;;;;;;20.21;68.13;101379.06;5020543;28;102211;-51
2022/06/19 10:28:45;;;;;;;4.47;4.18;;;;;;;20.18;67.83;101372.22;5034287;28;103817;-51
2022/06/19 10:31:23;;;;;;;4.28;3.97;;;;;;;20.18;68.04;101375.00;5033680;28;102510;-51
2022/06/19 10:33:59;;;;;;;2.90;2.70;;;;;;;20.70;63.14;101377.06;5030353;28;102384;-50
2022/06/19 10:36:31;;;;;;;5.47;3.20;;;;;;;20.95;61.90;101378.22;5032339;28;102463;-51
2022/06/19 10:39:11;;;;;;;17.50;3.78;;;;;;;21.01;62.36;101374.97;5032722;28;103873;-48
2022/06/19 10:42:01;;;;;;;19.67;4.10;;;;;;;20.66;64.22;101373.34;5033258;28;102288;-51
2022/06/19 10:44:34;;;;;;;13.73;3.85;;;;;;;20.50;64.90;101373.00;5035488;28;102477;-47
2022/06/19 10:47:10;;;;;;;9.80;3.60;;;;;;;20.46;65.69;101371.97;5022503;28;102476;-49
2022/06/19 10:49:51;;;;;;;10.32;4.38;;;;;;;20.35;66.22;101360.41;5029448;28;104867;-48
2022/06/19 10:52:24;;;;;;;8.35;4.53;;;;;;;20.30;66.35;101363.31;5033334;28;102341;-48
2022/06/19 10:55:22;;;;;;;14.55;4.47;;;;;;;20.26;66.82;101357.59;5030431;28;102233;-50
2022/06/19 10:58:03;;;;;;;7.47;3.80;;;;;;;20.45;65.73;101359.28;5018350;28;102605;-52
2022/06/19 11:00:30;;;;;;;2.55;2.00;;;;;;;21.10;58.91;101355.63;5035524;28;103963;-55
2022/06/19 11:05:54;;;;;;;19.40;7.35;;;;;;;21.23;57.94;101359.34;5018734;28;102393;-56
2022/06/19 11:08:25;;;;;;;29.95;8.05;;;;;;;21.25;58.05;101370.91;5031517;28;103403;-48
2022/06/19 11:10:55;;;;;;;28.77;10.65;;;;;;;20.85;60.11;101362.78;5036015;28;103964;-49
2022/06/19 11:13:22;;;;;;;30.55;9.82;;;;;;;20.69;61.40;101364.38;5036506;27;102275;-49
2022/06/19 11:16:01;;;;;;;31.42;11.45;;;;;;;20.58;62.93;101369.41;5024385;27;103013;-49
2022/06/19 11:18:45;;;;;;;32.08;11.95;;;;;;;20.50;63.56;101362.75;5056882;22;102467;-49
2022/06/19 11:21:17;;;;;;;34.78;13.60;;;;;;;20.45;64.19;101365.66;5026679;27;104126;-48
2022/06/19 11:27:26;;;;;;;48.50;15.98;;;;;;;20.34;65.34;101365.13;5098499;22;102337;-49
2022/06/19 11:29:58;;;;;;;39.58;15.07;;;;;;;20.32;65.55;101367.38;5078852;22;104434;-49
2022/06/19 11:32:29;;;;;;;36.75;14.10;;;;;;;20.28;65.64;101360.88;5037141;27;103895;-49
2022/06/19 11:35:00;;;;;;;36.25;14.10;;;;;;;20.27;65.74;101347.41;5039770;27;102207;-49
2022/06/19 11:37:32;;;;;;;37.25;14.13;;;;;;;20.26;65.84;101348.50;5037301;27;102139;-49
2022/06/19 11:40:14;;;;;;;35.63;14.23;;;;;;;20.25;65.76;101356.00;5034520;27;102523;-49
2022/06/19 11:42:47;;;;;;;38.28;14.57;;;;;;;20.27;65.70;101342.69;5032857;27;108804;-49
2022/06/19 11:45:24;;;;;;;36.60;14.10;;;;;;;20.28;66.01;101343.50;5041072;27;105685;-49